sensor_id;sensor_type;location;lat;lon;timestamp;P1;durP1;ratioP1;P2;durP2;ratioP2
23720;SDS011;42950;52.134;5.578;2022-10-15T00:00:30;42.42;;;31.60;;
23720;SDS011;42950;52.134;5.578;2022-10-15T00:02:55;42.33;;;30.90;;
23720;SDS011;42950;52.134;5.578;2022-10-15T00:05:21;40.55;;;29.40;;
23720;SDS011;42950;52.134;5.578;2022-10-15T00:07:47;39.92;;;28.98;;
23720;SDS011;42950;52.134;5.578;2022-10-15T00:10:13;37.45;;;26.77;;
23720;SDS011;42950;52.134;5.578;2022-10-15T00:12:40;40.85;;;30.13;;
23720;SDS011;42950;52.134;5.578;2022-10-15T00:15:06;35.30;;;27.02;;
23720;SDS011;42950;52.134;5.578;2022-10-15T00:17:33;36.17;;;27.67;;
23720;SDS011;42950;52.134;5.578;2022-10-15T00:20:00;40.35;;;28.85;;
23720;SDS011;42950;52.134;5.578;2022-10-15T00:22:26;39.20;;;29.20;;
23720;SDS011;42950;52.134;5.578;2022-10-15T00:24:52;38.35;;;29.70;;
23720;SDS011;42950;52.134;5.578;2022-10-15T00:27:17;44.83;;;32.08;;
23720;SDS011;42950;52.134;5.578;2022-10-15T00:29:43;40.30;;;29.67;;
23720;SDS011;42950;52.134;5.578;2022-10-15T00:32:09;42.63;;;29.45;;
23720;SDS011;42950;52.134;5.578;2022-10-15T00:34:34;41.10;;;30.35;;
23720;SDS011;42950;52.134;5.578;2022-10-15T00:37:00;41.05;;;29.48;;
23720;SDS011;42950;52.134;5.578;2022-10-15T00:39:26;40.30;;;30.33;;
23720;SDS011;42950;52.134;5.578;2022-10-15T00:41:52;39.95;;;29.55;;
23720;SDS011;42950;52.134;5.578;2022-10-15T00:52:04;41.13;;;30.45;;
23720;SDS011;42950;52.134;5.578;2022-10-15T00:54:41;44.20;;;32.75;;
23720;SDS011;42950;52.134;5.578;2022-10-15T00:57:11;41.33;;;30.75;;
23720;SDS011;42950;52.134;5.578;2022-10-15T00:59:40;38.60;;;28.75;;
23720;SDS011;42950;52.134;5.578;2022-10-15T01:02:14;34.33;;;27.05;;
23720;SDS011;42950;52.134;5.578;2022-10-15T01:04:43;42.53;;;31.42;;
23720;SDS011;42950;52.134;5.578;2022-10-15T01:07:11;41.67;;;30.98;;
23720;SDS011;42950;52.134;5.578;2022-10-15T01:09:38;43.45;;;31.83;;
23720;SDS011;42950;52.134;5.578;2022-10-15T01:12:07;41.85;;;31.23;;
23720;SDS011;42950;52.134;5.578;2022-10-15T01:15:06;40.20;;;30.20;;
23720;SDS011;42950;52.134;5.578;2022-10-15T01:17:49;41.85;;;30.92;;
23720;SDS011;42950;52.134;5.578;2022-10-15T01:20:24;47.97;;;32.33;;
23720;SDS011;42950;52.134;5.578;2022-10-15T01:26:05;42.45;;;31.05;;
23720;SDS011;42950;52.134;5.578;2022-10-15T01:29:01;46.17;;;32.60;;
23720;SDS011;42950;52.134;5.578;2022-10-15T01:34:29;47.05;;;33.25;;
23720;SDS011;42950;52.134;5.578;2022-10-15T01:39:44;50.65;;;34.03;;
23720;SDS011;42950;52.134;5.578;2022-10-15T01:42:17;49.40;;;34.55;;
23720;SDS011;42950;52.134;5.578;2022-10-15T01:44:53;48.92;;;34.85;;
23720;SDS011;42950;52.134;5.578;2022-10-15T01:47:46;52.03;;;35.58;;
23720;SDS011;42950;52.134;5.578;2022-10-15T01:50:25;49.53;;;33.50;;
23720;SDS011;42950;52.134;5.578;2022-10-15T01:52:54;47.03;;;33.42;;
23720;SDS011;42950;52.134;5.578;2022-10-15T01:55:21;49.67;;;33.40;;
23720;SDS011;42950;52.134;5.578;2022-10-15T01:57:49;49.05;;;34.22;;
23720;SDS011;42950;52.134;5.578;2022-10-15T02:00:16;50.72;;;33.80;;
23720;SDS011;42950;52.134;5.578;2022-10-15T02:02:42;52.60;;;36.05;;
23720;SDS011;42950;52.134;5.578;2022-10-15T02:05:21;58.28;;;36.78;;
23720;SDS011;42950;52.134;5.578;2022-10-15T02:13:12;58.05;;;37.58;;
23720;SDS011;42950;52.134;5.578;2022-10-15T02:24:26;62.42;;;38.97;;
23720;SDS011;42950;52.134;5.578;2022-10-15T02:27:00;63.13;;;39.50;;
23720;SDS011;42950;52.134;5.578;2022-10-15T02:29:30;68.60;;;40.35;;
23720;SDS011;42950;52.134;5.578;2022-10-15T02:31:59;66.57;;;40.60;;
23720;SDS011;42950;52.134;5.578;2022-10-15T02:34:27;66.00;;;41.53;;
23720;SDS011;42950;52.134;5.578;2022-10-15T02:36:57;68.72;;;41.88;;
23720;SDS011;42950;52.134;5.578;2022-10-15T02:39:26;68.70;;;44.03;;
23720;SDS011;42950;52.134;5.578;2022-10-15T02:41:52;71.85;;;45.28;;
23720;SDS011;42950;52.134;5.578;2022-10-15T02:44:20;72.28;;;44.05;;
23720;SDS011;42950;52.134;5.578;2022-10-15T02:46:46;67.25;;;41.90;;
23720;SDS011;42950;52.134;5.578;2022-10-15T02:49:12;64.13;;;40.08;;
23720;SDS011;42950;52.134;5.578;2022-10-15T02:51:39;65.82;;;41.58;;
23720;SDS011;42950;52.134;5.578;2022-10-15T02:54:05;74.20;;;45.58;;
23720;SDS011;42950;52.134;5.578;2022-10-15T02:56:32;71.30;;;43.63;;
23720;SDS011;42950;52.134;5.578;2022-10-15T02:58:59;69.18;;;43.13;;
23720;SDS011;42950;52.134;5.578;2022-10-15T03:01:25;67.80;;;43.97;;
23720;SDS011;42950;52.134;5.578;2022-10-15T03:03:51;66.30;;;42.50;;
23720;SDS011;42950;52.134;5.578;2022-10-15T03:06:17;66.75;;;43.13;;
23720;SDS011;42950;52.134;5.578;2022-10-15T03:08:42;67.15;;;40.45;;
23720;SDS011;42950;52.134;5.578;2022-10-15T03:11:08;65.95;;;43.00;;
23720;SDS011;42950;52.134;5.578;2022-10-15T03:13:36;71.40;;;44.90;;
23720;SDS011;42950;52.134;5.578;2022-10-15T03:16:03;66.95;;;43.78;;
23720;SDS011;42950;52.134;5.578;2022-10-15T03:18:30;68.65;;;44.15;;
23720;SDS011;42950;52.134;5.578;2022-10-15T03:20:56;70.75;;;44.55;;
23720;SDS011;42950;52.134;5.578;2022-10-15T03:23:22;63.05;;;40.95;;
23720;SDS011;42950;52.134;5.578;2022-10-15T03:25:48;67.93;;;44.15;;
23720;SDS011;42950;52.134;5.578;2022-10-15T03:28:14;67.47;;;41.50;;
23720;SDS011;42950;52.134;5.578;2022-10-15T03:30:41;57.75;;;39.65;;
23720;SDS011;42950;52.134;5.578;2022-10-15T03:33:07;63.72;;;40.13;;
23720;SDS011;42950;52.134;5.578;2022-10-15T03:35:33;65.78;;;42.03;;
23720;SDS011;42950;52.134;5.578;2022-10-15T03:37:59;58.17;;;38.35;;
23720;SDS011;42950;52.134;5.578;2022-10-15T03:40:26;56.38;;;37.80;;
23720;SDS011;42950;52.134;5.578;2022-10-15T03:42:52;65.78;;;40.83;;
23720;SDS011;42950;52.134;5.578;2022-10-15T03:45:21;54.85;;;37.67;;
23720;SDS011;42950;52.134;5.578;2022-10-15T03:47:47;61.38;;;40.10;;
23720;SDS011;42950;52.134;5.578;2022-10-15T03:50:13;62.53;;;41.60;;
23720;SDS011;42950;52.134;5.578;2022-10-15T03:52:39;56.35;;;38.17;;
23720;SDS011;42950;52.134;5.578;2022-10-15T03:55:06;61.33;;;39.63;;
23720;SDS011;42950;52.134;5.578;2022-10-15T03:57:32;59.72;;;38.67;;
23720;SDS011;42950;52.134;5.578;2022-10-15T03:59:58;62.22;;;39.78;;
23720;SDS011;42950;52.134;5.578;2022-10-15T04:02:24;52.30;;;36.83;;
23720;SDS011;42950;52.134;5.578;2022-10-15T04:04:52;62.00;;;40.08;;
23720;SDS011;42950;52.134;5.578;2022-10-15T04:07:19;54.50;;;37.78;;
23720;SDS011;42950;52.134;5.578;2022-10-15T04:09:45;52.25;;;35.50;;
23720;SDS011;42950;52.134;5.578;2022-10-15T04:12:12;59.88;;;40.67;;
23720;SDS011;42950;52.134;5.578;2022-10-15T04:14:39;52.00;;;35.55;;
23720;SDS011;42950;52.134;5.578;2022-10-15T04:17:05;57.20;;;37.65;;
23720;SDS011;42950;52.134;5.578;2022-10-15T04:19:31;53.10;;;35.72;;
23720;SDS011;42950;52.134;5.578;2022-10-15T04:21:56;60.15;;;38.92;;
23720;SDS011;42950;52.134;5.578;2022-10-15T04:24:22;57.00;;;37.97;;
23720;SDS011;42950;52.134;5.578;2022-10-15T04:26:48;58.67;;;39.28;;
23720;SDS011;42950;52.134;5.578;2022-10-15T04:29:15;61.65;;;39.83;;
23720;SDS011;42950;52.134;5.578;2022-10-15T04:31:41;66.70;;;40.78;;
23720;SDS011;42950;52.134;5.578;2022-10-15T04:34:07;59.08;;;39.65;;
23720;SDS011;42950;52.134;5.578;2022-10-15T04:36:33;64.75;;;40.65;;
23720;SDS011;42950;52.134;5.578;2022-10-15T04:39:00;61.40;;;41.47;;
23720;SDS011;42950;52.134;5.578;2022-10-15T04:41:26;56.45;;;37.65;;
23720;SDS011;42950;52.134;5.578;2022-10-15T04:43:52;65.20;;;41.17;;
23720;SDS011;42950;52.134;5.578;2022-10-15T04:46:18;57.95;;;39.50;;
23720;SDS011;42950;52.134;5.578;2022-10-15T04:48:46;55.00;;;39.13;;
23720;SDS011;42950;52.134;5.578;2022-10-15T04:51:17;59.63;;;39.33;;
23720;SDS011;42950;52.134;5.578;2022-10-15T04:53:45;61.58;;;40.92;;
23720;SDS011;42950;52.134;5.578;2022-10-15T04:56:13;56.83;;;39.35;;
23720;SDS011;42950;52.134;5.578;2022-10-15T04:58:42;58.10;;;37.80;;
23720;SDS011;42950;52.134;5.578;2022-10-15T05:01:09;63.78;;;41.60;;
23720;SDS011;42950;52.134;5.578;2022-10-15T05:03:37;61.95;;;42.58;;
23720;SDS011;42950;52.134;5.578;2022-10-15T05:06:04;62.83;;;42.15;;
23720;SDS011;42950;52.134;5.578;2022-10-15T05:08:41;64.20;;;43.90;;
23720;SDS011;42950;52.134;5.578;2022-10-15T05:11:12;63.53;;;43.95;;
23720;SDS011;42950;52.134;5.578;2022-10-15T05:13:40;62.00;;;43.95;;
23720;SDS011;42950;52.134;5.578;2022-10-15T05:16:10;67.13;;;44.10;;
23720;SDS011;42950;52.134;5.578;2022-10-15T05:18:37;63.55;;;44.33;;
23720;SDS011;42950;52.134;5.578;2022-10-15T05:21:04;67.18;;;45.67;;
23720;SDS011;42950;52.134;5.578;2022-10-15T05:23:30;69.15;;;46.22;;
23720;SDS011;42950;52.134;5.578;2022-10-15T05:26:02;69.85;;;47.38;;
23720;SDS011;42950;52.134;5.578;2022-10-15T05:28:29;63.55;;;43.20;;
23720;SDS011;42950;52.134;5.578;2022-10-15T05:30:55;65.38;;;45.10;;
23720;SDS011;42950;52.134;5.578;2022-10-15T05:33:26;71.93;;;46.92;;
23720;SDS011;42950;52.134;5.578;2022-10-15T05:35:52;68.65;;;46.17;;
23720;SDS011;42950;52.134;5.578;2022-10-15T05:38:18;68.43;;;46.97;;
23720;SDS011;42950;52.134;5.578;2022-10-15T05:40:47;70.85;;;46.97;;
23720;SDS011;42950;52.134;5.578;2022-10-15T05:43:13;71.53;;;48.13;;
23720;SDS011;42950;52.134;5.578;2022-10-15T05:45:39;75.45;;;50.75;;
23720;SDS011;42950;52.134;5.578;2022-10-15T05:48:05;80.57;;;50.97;;
23720;SDS011;42950;52.134;5.578;2022-10-15T05:50:31;75.47;;;51.95;;
23720;SDS011;42950;52.134;5.578;2022-10-15T05:52:57;81.97;;;52.40;;
23720;SDS011;42950;52.134;5.578;2022-10-15T05:55:23;95.40;;;53.95;;
23720;SDS011;42950;52.134;5.578;2022-10-15T05:57:50;99.47;;;56.25;;
23720;SDS011;42950;52.134;5.578;2022-10-15T06:00:16;97.95;;;56.47;;
23720;SDS011;42950;52.134;5.578;2022-10-15T06:02:42;96.40;;;53.45;;
23720;SDS011;42950;52.134;5.578;2022-10-15T06:05:08;105.00;;;55.67;;
23720;SDS011;42950;52.134;5.578;2022-10-15T06:07:33;108.72;;;57.45;;
23720;SDS011;42950;52.134;5.578;2022-10-15T06:09:59;110.45;;;57.45;;
23720;SDS011;42950;52.134;5.578;2022-10-15T06:12:26;106.90;;;55.92;;
23720;SDS011;42950;52.134;5.578;2022-10-15T06:14:51;98.38;;;51.97;;
23720;SDS011;42950;52.134;5.578;2022-10-15T06:17:18;102.75;;;53.85;;
23720;SDS011;42950;52.134;5.578;2022-10-15T06:19:44;97.20;;;52.75;;
23720;SDS011;42950;52.134;5.578;2022-10-15T06:22:10;99.65;;;52.33;;
23720;SDS011;42950;52.134;5.578;2022-10-15T06:24:36;94.72;;;51.53;;
23720;SDS011;42950;52.134;5.578;2022-10-15T06:27:01;96.80;;;51.03;;
23720;SDS011;42950;52.134;5.578;2022-10-15T06:29:27;100.82;;;52.63;;
23720;SDS011;42950;52.134;5.578;2022-10-15T06:31:53;89.00;;;48.83;;
23720;SDS011;42950;52.134;5.578;2022-10-15T06:34:18;88.30;;;48.85;;
23720;SDS011;42950;52.134;5.578;2022-10-15T06:36:44;85.25;;;47.47;;
23720;SDS011;42950;52.134;5.578;2022-10-15T06:39:09;83.45;;;45.47;;
23720;SDS011;42950;52.134;5.578;2022-10-15T06:41:35;80.25;;;43.95;;
23720;SDS011;42950;52.134;5.578;2022-10-15T06:44:00;79.03;;;44.60;;
23720;SDS011;42950;52.134;5.578;2022-10-15T06:46:26;76.32;;;41.40;;
23720;SDS011;42950;52.134;5.578;2022-10-15T06:48:52;75.68;;;42.85;;
23720;SDS011;42950;52.134;5.578;2022-10-15T06:51:18;74.88;;;42.67;;
23720;SDS011;42950;52.134;5.578;2022-10-15T06:53:43;79.95;;;42.88;;
23720;SDS011;42950;52.134;5.578;2022-10-15T06:56:10;76.43;;;42.05;;
23720;SDS011;42950;52.134;5.578;2022-10-15T06:58:35;75.38;;;41.25;;
23720;SDS011;42950;52.134;5.578;2022-10-15T07:01:04;80.30;;;42.03;;
23720;SDS011;42950;52.134;5.578;2022-10-15T07:03:31;76.95;;;41.97;;
23720;SDS011;42950;52.134;5.578;2022-10-15T07:06:00;78.25;;;42.53;;
23720;SDS011;42950;52.134;5.578;2022-10-15T07:08:27;80.07;;;42.83;;
23720;SDS011;42950;52.134;5.578;2022-10-15T07:10:53;74.88;;;41.25;;
23720;SDS011;42950;52.134;5.578;2022-10-15T07:13:18;67.18;;;39.20;;
23720;SDS011;42950;52.134;5.578;2022-10-15T07:15:44;80.85;;;41.13;;
23720;SDS011;42950;52.134;5.578;2022-10-15T07:18:11;72.82;;;40.55;;
23720;SDS011;42950;52.134;5.578;2022-10-15T07:20:36;81.82;;;42.10;;
23720;SDS011;42950;52.134;5.578;2022-10-15T07:23:02;67.72;;;38.50;;
23720;SDS011;42950;52.134;5.578;2022-10-15T07:25:28;73.18;;;39.50;;
23720;SDS011;42950;52.134;5.578;2022-10-15T07:27:54;69.80;;;39.20;;
23720;SDS011;42950;52.134;5.578;2022-10-15T07:30:20;63.75;;;37.53;;
23720;SDS011;42950;52.134;5.578;2022-10-15T07:32:47;64.45;;;39.03;;
23720;SDS011;42950;52.134;5.578;2022-10-15T07:35:14;59.65;;;36.13;;
23720;SDS011;42950;52.134;5.578;2022-10-15T07:37:39;57.63;;;34.35;;
23720;SDS011;42950;52.134;5.578;2022-10-15T07:40:05;56.60;;;34.95;;
23720;SDS011;42950;52.134;5.578;2022-10-15T07:42:31;58.33;;;33.78;;
23720;SDS011;42950;52.134;5.578;2022-10-15T07:44:57;53.60;;;32.85;;
23720;SDS011;42950;52.134;5.578;2022-10-15T07:47:23;49.42;;;31.30;;
23720;SDS011;42950;52.134;5.578;2022-10-15T07:49:49;49.20;;;31.05;;
23720;SDS011;42950;52.134;5.578;2022-10-15T07:52:14;46.42;;;30.75;;
23720;SDS011;42950;52.134;5.578;2022-10-15T07:54:40;46.83;;;29.83;;
23720;SDS011;42950;52.134;5.578;2022-10-15T07:57:05;39.30;;;27.58;;
23720;SDS011;42950;52.134;5.578;2022-10-15T07:59:32;37.88;;;27.52;;
23720;SDS011;42950;52.134;5.578;2022-10-15T08:01:58;40.08;;;28.58;;
23720;SDS011;42950;52.134;5.578;2022-10-15T08:04:23;38.17;;;27.08;;
23720;SDS011;42950;52.134;5.578;2022-10-15T08:06:49;34.65;;;25.67;;
23720;SDS011;42950;52.134;5.578;2022-10-15T08:09:15;35.17;;;24.60;;
23720;SDS011;42950;52.134;5.578;2022-10-15T08:11:40;31.75;;;24.00;;
23720;SDS011;42950;52.134;5.578;2022-10-15T08:14:06;34.72;;;23.35;;
23720;SDS011;42950;52.134;5.578;2022-10-15T08:16:31;31.80;;;23.10;;
23720;SDS011;42950;52.134;5.578;2022-10-15T08:18:57;30.98;;;23.00;;
23720;SDS011;42950;52.134;5.578;2022-10-15T08:21:23;31.27;;;24.00;;
23720;SDS011;42950;52.134;5.578;2022-10-15T08:23:49;32.28;;;24.42;;
23720;SDS011;42950;52.134;5.578;2022-10-15T08:26:15;32.15;;;23.77;;
23720;SDS011;42950;52.134;5.578;2022-10-15T08:28:41;32.97;;;24.15;;
23720;SDS011;42950;52.134;5.578;2022-10-15T08:31:07;29.73;;;23.40;;
23720;SDS011;42950;52.134;5.578;2022-10-15T08:33:33;33.13;;;23.50;;
23720;SDS011;42950;52.134;5.578;2022-10-15T08:36:01;31.00;;;22.63;;
23720;SDS011;42950;52.134;5.578;2022-10-15T08:38:29;29.05;;;22.83;;
23720;SDS011;42950;52.134;5.578;2022-10-15T08:40:56;31.35;;;22.92;;
23720;SDS011;42950;52.134;5.578;2022-10-15T08:43:25;28.85;;;21.77;;
23720;SDS011;42950;52.134;5.578;2022-10-15T08:45:58;28.90;;;22.48;;
23720;SDS011;42950;52.134;5.578;2022-10-15T08:48:30;25.38;;;20.08;;
23720;SDS011;42950;52.134;5.578;2022-10-15T08:51:02;30.10;;;21.40;;
23720;SDS011;42950;52.134;5.578;2022-10-15T08:53:44;26.25;;;20.75;;
23720;SDS011;42950;52.134;5.578;2022-10-15T08:56:21;28.27;;;19.92;;
23720;SDS011;42950;52.134;5.578;2022-10-15T08:59:03;25.20;;;20.38;;
23720;SDS011;42950;52.134;5.578;2022-10-15T09:01:36;25.92;;;20.30;;
23720;SDS011;42950;52.134;5.578;2022-10-15T09:04:20;25.02;;;20.33;;
23720;SDS011;42950;52.134;5.578;2022-10-15T09:06:48;25.13;;;20.05;;
23720;SDS011;42950;52.134;5.578;2022-10-15T09:09:24;26.13;;;20.20;;
23720;SDS011;42950;52.134;5.578;2022-10-15T09:14:46;29.65;;;21.30;;
23720;SDS011;42950;52.134;5.578;2022-10-15T09:17:23;26.40;;;22.30;;
23720;SDS011;42950;52.134;5.578;2022-10-15T09:19:53;25.95;;;22.00;;
23720;SDS011;42950;52.134;5.578;2022-10-15T09:22:25;28.60;;;22.25;;
23720;SDS011;42950;52.134;5.578;2022-10-15T09:24:52;26.35;;;22.02;;
23720;SDS011;42950;52.134;5.578;2022-10-15T09:30:03;26.85;;;23.17;;
23720;SDS011;42950;52.134;5.578;2022-10-15T09:32:44;29.65;;;24.20;;
23720;SDS011;42950;52.134;5.578;2022-10-15T09:43:03;24.15;;;19.92;;
23720;SDS011;42950;52.134;5.578;2022-10-15T09:45:31;23.55;;;19.23;;
23720;SDS011;42950;52.134;5.578;2022-10-15T09:47:57;23.73;;;18.02;;
23720;SDS011;42950;52.134;5.578;2022-10-15T09:50:41;21.10;;;18.38;;
23720;SDS011;42950;52.134;5.578;2022-10-15T09:53:17;20.20;;;17.98;;
23720;SDS011;42950;52.134;5.578;2022-10-15T09:56:14;19.75;;;17.05;;
23720;SDS011;42950;52.134;5.578;2022-10-15T10:01:18;18.45;;;16.10;;
23720;SDS011;42950;52.134;5.578;2022-10-15T10:03:45;22.80;;;16.67;;
23720;SDS011;42950;52.134;5.578;2022-10-15T10:06:20;18.70;;;15.93;;
23720;SDS011;42950;52.134;5.578;2022-10-15T10:08:49;21.83;;;15.70;;
23720;SDS011;42950;52.134;5.578;2022-10-15T10:11:16;18.00;;;15.30;;
23720;SDS011;42950;52.134;5.578;2022-10-15T10:13:45;18.15;;;14.20;;
23720;SDS011;42950;52.134;5.578;2022-10-15T10:16:25;18.10;;;14.35;;
23720;SDS011;42950;52.134;5.578;2022-10-15T10:19:04;15.60;;;13.90;;
23720;SDS011;42950;52.134;5.578;2022-10-15T10:21:41;18.83;;;14.50;;
23720;SDS011;42950;52.134;5.578;2022-10-15T10:24:24;15.80;;;14.10;;
23720;SDS011;42950;52.134;5.578;2022-10-15T10:26:58;16.48;;;14.57;;
23720;SDS011;42950;52.134;5.578;2022-10-15T10:29:26;17.13;;;13.77;;
23720;SDS011;42950;52.134;5.578;2022-10-15T10:31:54;20.35;;;15.02;;
23720;SDS011;42950;52.134;5.578;2022-10-15T10:34:25;20.67;;;15.50;;
23720;SDS011;42950;52.134;5.578;2022-10-15T10:36:53;18.77;;;14.25;;
23720;SDS011;42950;52.134;5.578;2022-10-15T10:39:24;17.98;;;13.63;;
23720;SDS011;42950;52.134;5.578;2022-10-15T10:41:56;17.52;;;13.52;;
23720;SDS011;42950;52.134;5.578;2022-10-15T10:46:59;16.50;;;12.40;;
23720;SDS011;42950;52.134;5.578;2022-10-15T10:49:31;15.05;;;13.45;;
23720;SDS011;42950;52.134;5.578;2022-10-15T10:52:18;16.63;;;13.13;;
23720;SDS011;42950;52.134;5.578;2022-10-15T10:55:05;16.95;;;13.00;;
23720;SDS011;42950;52.134;5.578;2022-10-15T10:57:45;15.30;;;12.30;;
23720;SDS011;42950;52.134;5.578;2022-10-15T11:00:23;15.18;;;13.13;;
23720;SDS011;42950;52.134;5.578;2022-10-15T11:02:56;15.85;;;12.70;;
23720;SDS011;42950;52.134;5.578;2022-10-15T11:05:24;16.63;;;13.00;;
23720;SDS011;42950;52.134;5.578;2022-10-15T11:10:20;13.55;;;10.77;;
23720;SDS011;42950;52.134;5.578;2022-10-15T11:15:35;12.73;;;10.65;;
23720;SDS011;42950;52.134;5.578;2022-10-15T11:18:25;13.65;;;11.13;;
23720;SDS011;42950;52.134;5.578;2022-10-15T11:29:48;11.68;;;10.38;;
23720;SDS011;42950;52.134;5.578;2022-10-15T11:41:13;12.90;;;10.68;;
23720;SDS011;42950;52.134;5.578;2022-10-15T11:49:11;12.32;;;9.88;;
23720;SDS011;42950;52.134;5.578;2022-10-15T11:57:28;13.60;;;10.35;;
23720;SDS011;42950;52.134;5.578;2022-10-15T12:00:03;10.35;;;9.23;;
23720;SDS011;42950;52.134;5.578;2022-10-15T12:02:38;12.82;;;8.77;;
23720;SDS011;42950;52.134;5.578;2022-10-15T12:05:13;11.40;;;8.95;;
23720;SDS011;42950;52.134;5.578;2022-10-15T12:07:45;10.57;;;8.75;;
23720;SDS011;42950;52.134;5.578;2022-10-15T12:15:41;9.07;;;6.80;;
23720;SDS011;42950;52.134;5.578;2022-10-15T12:18:32;7.50;;;6.70;;
23720;SDS011;42950;52.134;5.578;2022-10-15T12:21:03;7.53;;;6.25;;
23720;SDS011;42950;52.134;5.578;2022-10-15T12:23:48;7.35;;;6.65;;
23720;SDS011;42950;52.134;5.578;2022-10-15T12:28:54;6.72;;;6.13;;
23720;SDS011;42950;52.134;5.578;2022-10-15T12:31:21;6.63;;;6.05;;
23720;SDS011;42950;52.134;5.578;2022-10-15T12:33:52;7.28;;;6.07;;
23720;SDS011;42950;52.134;5.578;2022-10-15T12:36:24;6.20;;;5.63;;
23720;SDS011;42950;52.134;5.578;2022-10-15T12:39:01;6.43;;;5.82;;
23720;SDS011;42950;52.134;5.578;2022-10-15T12:41:33;6.63;;;6.00;;
23720;SDS011;42950;52.134;5.578;2022-10-15T12:44:24;6.75;;;5.88;;
23720;SDS011;42950;52.134;5.578;2022-10-15T12:46:55;7.05;;;6.15;;
23720;SDS011;42950;52.134;5.578;2022-10-15T12:51:58;7.70;;;7.05;;
23720;SDS011;42950;52.134;5.578;2022-10-15T12:56:56;8.68;;;7.78;;
23720;SDS011;42950;52.134;5.578;2022-10-15T13:04:57;8.73;;;7.60;;
23720;SDS011;42950;52.134;5.578;2022-10-15T13:07:23;8.07;;;7.35;;
23720;SDS011;42950;52.134;5.578;2022-10-15T13:09:49;8.18;;;7.47;;
23720;SDS011;42950;52.134;5.578;2022-10-15T13:12:24;8.65;;;7.95;;
23720;SDS011;42950;52.134;5.578;2022-10-15T13:14:54;9.20;;;8.38;;
23720;SDS011;42950;52.134;5.578;2022-10-15T13:17:27;9.43;;;8.52;;
23720;SDS011;42950;52.134;5.578;2022-10-15T13:22:24;9.02;;;8.18;;
23720;SDS011;42950;52.134;5.578;2022-10-15T13:24:52;8.70;;;7.90;;
23720;SDS011;42950;52.134;5.578;2022-10-15T13:27:30;8.55;;;7.75;;
23720;SDS011;42950;52.134;5.578;2022-10-15T13:30:05;8.23;;;7.53;;
23720;SDS011;42950;52.134;5.578;2022-10-15T13:32:41;8.43;;;7.72;;
23720;SDS011;42950;52.134;5.578;2022-10-15T13:35:15;9.70;;;8.20;;
23720;SDS011;42950;52.134;5.578;2022-10-15T13:37:44;8.52;;;7.72;;
23720;SDS011;42950;52.134;5.578;2022-10-15T13:40:16;8.70;;;7.30;;
23720;SDS011;42950;52.134;5.578;2022-10-15T13:42:57;8.32;;;7.63;;
23720;SDS011;42950;52.134;5.578;2022-10-15T13:45:23;8.65;;;7.88;;
23720;SDS011;42950;52.134;5.578;2022-10-15T13:47:50;8.90;;;8.00;;
23720;SDS011;42950;52.134;5.578;2022-10-15T13:52:43;8.82;;;8.02;;
23720;SDS011;42950;52.134;5.578;2022-10-15T13:55:23;9.32;;;8.55;;
23720;SDS011;42950;52.134;5.578;2022-10-15T13:57:53;8.52;;;7.82;;
23720;SDS011;42950;52.134;5.578;2022-10-15T14:00:24;8.95;;;8.15;;
23720;SDS011;42950;52.134;5.578;2022-10-15T14:03:07;8.65;;;7.90;;
23720;SDS011;42950;52.134;5.578;2022-10-15T14:05:42;8.23;;;7.43;;
23720;SDS011;42950;52.134;5.578;2022-10-15T14:08:16;9.07;;;8.20;;
23720;SDS011;42950;52.134;5.578;2022-10-15T14:10:46;10.68;;;7.75;;
23720;SDS011;42950;52.134;5.578;2022-10-15T14:13:12;8.45;;;7.53;;
23720;SDS011;42950;52.134;5.578;2022-10-15T14:15:39;8.00;;;7.30;;
23720;SDS011;42950;52.134;5.578;2022-10-15T14:18:07;6.78;;;6.18;;
23720;SDS011;42950;52.134;5.578;2022-10-15T14:20:34;7.70;;;7.00;;
23720;SDS011;42950;52.134;5.578;2022-10-15T14:23:00;8.45;;;7.65;;
23720;SDS011;42950;52.134;5.578;2022-10-15T14:25:26;8.00;;;7.07;;
23720;SDS011;42950;52.134;5.578;2022-10-15T14:27:52;7.63;;;6.95;;
23720;SDS011;42950;52.134;5.578;2022-10-15T14:30:23;7.60;;;6.95;;
23720;SDS011;42950;52.134;5.578;2022-10-15T14:32:50;7.10;;;6.50;;
23720;SDS011;42950;52.134;5.578;2022-10-15T14:38:02;6.50;;;5.75;;
23720;SDS011;42950;52.134;5.578;2022-10-15T14:40:29;5.88;;;5.40;;
23720;SDS011;42950;52.134;5.578;2022-10-15T14:48:25;5.00;;;4.60;;
23720;SDS011;42950;52.134;5.578;2022-10-15T14:51:04;4.82;;;4.40;;
23720;SDS011;42950;52.134;5.578;2022-10-15T14:53:35;4.68;;;4.20;;
23720;SDS011;42950;52.134;5.578;2022-10-15T14:56:08;4.22;;;3.92;;
23720;SDS011;42950;52.134;5.578;2022-10-15T14:58:53;4.15;;;3.85;;
23720;SDS011;42950;52.134;5.578;2022-10-15T15:01:20;4.53;;;4.15;;
23720;SDS011;42950;52.134;5.578;2022-10-15T15:03:53;3.88;;;3.50;;
23720;SDS011;42950;52.134;5.578;2022-10-15T15:06:20;3.63;;;3.33;;
23720;SDS011;42950;52.134;5.578;2022-10-15T15:08:47;4.20;;;3.80;;
23720;SDS011;42950;52.134;5.578;2022-10-15T15:11:14;4.15;;;3.75;;
23720;SDS011;42950;52.134;5.578;2022-10-15T15:13:45;4.57;;;3.63;;
23720;SDS011;42950;52.134;5.578;2022-10-15T15:16:12;6.70;;;3.38;;
23720;SDS011;42950;52.134;5.578;2022-10-15T15:18:39;2.92;;;2.72;;
23720;SDS011;42950;52.134;5.578;2022-10-15T15:21:08;3.25;;;2.95;;
23720;SDS011;42950;52.134;5.578;2022-10-15T15:23:36;6.22;;;3.10;;
23720;SDS011;42950;52.134;5.578;2022-10-15T15:26:02;4.40;;;2.88;;
23720;SDS011;42950;52.134;5.578;2022-10-15T15:28:28;2.65;;;2.45;;
23720;SDS011;42950;52.134;5.578;2022-10-15T15:31:13;3.50;;;3.20;;
23720;SDS011;42950;52.134;5.578;2022-10-15T15:33:41;5.40;;;2.65;;
23720;SDS011;42950;52.134;5.578;2022-10-15T15:36:09;3.72;;;3.13;;
23720;SDS011;42950;52.134;5.578;2022-10-15T15:38:40;4.60;;;3.10;;
23720;SDS011;42950;52.134;5.578;2022-10-15T15:41:16;8.65;;;4.00;;
23720;SDS011;42950;52.134;5.578;2022-10-15T15:43:43;6.93;;;3.40;;
23720;SDS011;42950;52.134;5.578;2022-10-15T15:46:10;3.67;;;1.92;;
23720;SDS011;42950;52.134;5.578;2022-10-15T15:48:36;4.80;;;2.13;;
23720;SDS011;42950;52.134;5.578;2022-10-15T15:51:02;3.17;;;1.60;;
23720;SDS011;42950;52.134;5.578;2022-10-15T15:53:31;5.15;;;1.63;;
23720;SDS011;42950;52.134;5.578;2022-10-15T15:55:57;3.63;;;1.42;;
23720;SDS011;42950;52.134;5.578;2022-10-15T15:58:23;2.63;;;1.60;;
23720;SDS011;42950;52.134;5.578;2022-10-15T16:00:49;5.97;;;1.88;;
23720;SDS011;42950;52.134;5.578;2022-10-15T16:03:14;6.57;;;2.13;;
23720;SDS011;42950;52.134;5.578;2022-10-15T16:05:40;3.20;;;1.63;;
23720;SDS011;42950;52.134;5.578;2022-10-15T16:08:07;3.58;;;1.73;;
23720;SDS011;42950;52.134;5.578;2022-10-15T16:10:33;3.42;;;1.60;;
23720;SDS011;42950;52.134;5.578;2022-10-15T16:13:00;3.88;;;1.75;;
23720;SDS011;42950;52.134;5.578;2022-10-15T16:15:26;5.68;;;1.90;;
23720;SDS011;42950;52.134;5.578;2022-10-15T16:17:52;3.75;;;2.08;;
23720;SDS011;42950;52.134;5.578;2022-10-15T16:20:18;6.10;;;1.85;;
23720;SDS011;42950;52.134;5.578;2022-10-15T16:22:47;2.75;;;1.40;;
23720;SDS011;42950;52.134;5.578;2022-10-15T16:25:14;3.58;;;1.38;;
23720;SDS011;42950;52.134;5.578;2022-10-15T16:27:39;3.30;;;1.67;;
23720;SDS011;42950;52.134;5.578;2022-10-15T16:30:05;3.03;;;1.80;;
23720;SDS011;42950;52.134;5.578;2022-10-15T16:32:31;5.40;;;2.28;;
23720;SDS011;42950;52.134;5.578;2022-10-15T16:34:57;2.53;;;2.10;;